<?xml version="1.0" encoding="UTF-8" standalone="no" ?>
<gpx xmlns="http://www.topografix.com/GPX/1/1" xmlns:xsi="http://www.w3.org/2001/XMLSchema-instance" xsi:schemaLocation="http://www.topografix.com/GPX/1/1 http://www.topografix.com/GPX/1/1/gpx.xsd" version="1.1" creator="VisuGPX - https://www.visugpx.com">
  <metadata>
    <name>42  forez</name>
  </metadata>
  <trk>
    <name><![CDATA[J1  Aboen Biesse]]></name>
    <trkseg>
      <trkpt lat="45.5094" lon="4.17103">
        <ele>387</ele>
        <time>2018-09-26T14:29:23Z</time>
      </trkpt>
      <trkpt lat="45.50961" lon="4.17255">
        <ele>385</ele>
        <time>2018-09-26T14:30:23Z</time>
      </trkpt>
      <trkpt lat="45.50982" lon="4.17287">
        <ele>385</ele>
        <time>2018-09-26T14:31:23Z</time>
      </trkpt>
      <trkpt lat="45.51035" lon="4.17332">
        <ele>385</ele>
        <time>2018-09-26T14:32:23Z</time>
      </trkpt>
      <trkpt lat="45.51093" lon="4.17346">
        <ele>383</ele>
        <time>2018-09-26T14:33:23Z</time>
      </trkpt>
      <trkpt lat="45.51066" lon="4.17472">
        <ele>385</ele>
        <time>2018-09-26T14:34:23Z</time>
      </trkpt>
      <trkpt lat="45.51049" lon="4.17506">
        <ele>385</ele>
        <time>2018-09-26T14:35:23Z</time>
      </trkpt>
      <trkpt lat="45.51031" lon="4.17541">
        <ele>386</ele>
        <time>2018-09-26T14:36:23Z</time>
      </trkpt>
      <trkpt lat="45.51047" lon="4.17632">
        <ele>385</ele>
        <time>2018-09-26T14:37:23Z</time>
      </trkpt>
      <trkpt lat="45.51058" lon="4.1764">
        <ele>385</ele>
        <time>2018-09-26T14:38:23Z</time>
      </trkpt>
      <trkpt lat="45.51098" lon="4.17649">
        <ele>386</ele>
        <time>2018-09-26T14:39:23Z</time>
      </trkpt>
      <trkpt lat="45.51134" lon="4.17677">
        <ele>387</ele>
        <time>2018-09-26T14:40:23Z</time>
      </trkpt>
      <trkpt lat="45.51169" lon="4.1772">
        <ele>387</ele>
        <time>2018-09-26T14:41:23Z</time>
      </trkpt>
      <trkpt lat="45.5119" lon="4.17758">
        <ele>386</ele>
        <time>2018-09-26T14:42:23Z</time>
      </trkpt>
      <trkpt lat="45.51197" lon="4.17777">
        <ele>387</ele>
        <time>2018-09-26T14:43:23Z</time>
      </trkpt>
      <trkpt lat="45.51187" lon="4.17793">
        <ele>386</ele>
        <time>2018-09-26T14:44:23Z</time>
      </trkpt>
      <trkpt lat="45.51181" lon="4.17814">
        <ele>386</ele>
        <time>2018-09-26T14:45:23Z</time>
      </trkpt>
      <trkpt lat="45.51178" lon="4.1786">
        <ele>386</ele>
        <time>2018-09-26T14:46:23Z</time>
      </trkpt>
      <trkpt lat="45.51233" lon="4.17845">
        <ele>387</ele>
        <time>2018-09-26T14:47:23Z</time>
      </trkpt>
      <trkpt lat="45.51275" lon="4.17855">
        <ele>388</ele>
        <time>2018-09-26T14:48:23Z</time>
      </trkpt>
      <trkpt lat="45.51253" lon="4.17945">
        <ele>388</ele>
        <time>2018-09-26T14:49:23Z</time>
      </trkpt>
      <trkpt lat="45.51249" lon="4.18012">
        <ele>389</ele>
        <time>2018-09-26T14:50:23Z</time>
      </trkpt>
      <trkpt lat="45.51257" lon="4.1811">
        <ele>388</ele>
        <time>2018-09-26T14:51:23Z</time>
      </trkpt>
      <trkpt lat="45.51276" lon="4.18185">
        <ele>389</ele>
        <time>2018-09-26T14:52:23Z</time>
      </trkpt>
      <trkpt lat="45.51299" lon="4.18223">
        <ele>389</ele>
        <time>2018-09-26T14:53:23Z</time>
      </trkpt>
      <trkpt lat="45.51329" lon="4.18269">
        <ele>388</ele>
        <time>2018-09-26T14:54:23Z</time>
      </trkpt>
      <trkpt lat="45.5143" lon="4.18399">
        <ele>388</ele>
        <time>2018-09-26T14:55:23Z</time>
      </trkpt>
      <trkpt lat="45.51441" lon="4.1843">
        <ele>389</ele>
        <time>2018-09-26T14:56:23Z</time>
      </trkpt>
      <trkpt lat="45.5146" lon="4.18478">
        <ele>390</ele>
        <time>2018-09-26T14:57:23Z</time>
      </trkpt>
      <trkpt lat="45.51468" lon="4.18572">
        <ele>390</ele>
        <time>2018-09-26T14:58:23Z</time>
      </trkpt>
      <trkpt lat="45.51465" lon="4.18655">
        <ele>390</ele>
        <time>2018-09-26T14:59:23Z</time>
      </trkpt>
      <trkpt lat="45.5145" lon="4.18711">
        <ele>390</ele>
        <time>2018-09-26T15:00:23Z</time>
      </trkpt>
      <trkpt lat="45.51435" lon="4.18756">
        <ele>390</ele>
        <time>2018-09-26T15:01:23Z</time>
      </trkpt>
      <trkpt lat="45.51408" lon="4.18799">
        <ele>389</ele>
        <time>2018-09-26T15:02:23Z</time>
      </trkpt>
      <trkpt lat="45.51385" lon="4.18834">
        <ele>388</ele>
        <time>2018-09-26T15:03:23Z</time>
      </trkpt>
      <trkpt lat="45.51335" lon="4.18913">
        <ele>387</ele>
        <time>2018-09-26T15:04:23Z</time>
      </trkpt>
      <trkpt lat="45.51293" lon="4.18972">
        <ele>388</ele>
        <time>2018-09-26T15:05:23Z</time>
      </trkpt>
      <trkpt lat="45.51251" lon="4.19006">
        <ele>389</ele>
        <time>2018-09-26T15:06:23Z</time>
      </trkpt>
      <trkpt lat="45.51231" lon="4.19013">
        <ele>389</ele>
        <time>2018-09-26T15:07:23Z</time>
      </trkpt>
      <trkpt lat="45.51196" lon="4.19019">
        <ele>389</ele>
        <time>2018-09-26T15:08:23Z</time>
      </trkpt>
      <trkpt lat="45.51161" lon="4.19032">
        <ele>390</ele>
        <time>2018-09-26T15:09:23Z</time>
      </trkpt>
      <trkpt lat="45.5114" lon="4.1904">
        <ele>390</ele>
        <time>2018-09-26T15:10:23Z</time>
      </trkpt>
      <trkpt lat="45.51117" lon="4.19073">
        <ele>390</ele>
        <time>2018-09-26T15:11:23Z</time>
      </trkpt>
      <trkpt lat="45.51101" lon="4.19122">
        <ele>390</ele>
        <time>2018-09-26T15:12:23Z</time>
      </trkpt>
      <trkpt lat="45.50944" lon="4.1907">
        <ele>393</ele>
        <time>2018-09-26T15:13:23Z</time>
      </trkpt>
      <trkpt lat="45.50863" lon="4.19037">
        <ele>395</ele>
        <time>2018-09-26T15:14:23Z</time>
      </trkpt>
      <trkpt lat="45.50712" lon="4.1899">
        <ele>398</ele>
        <time>2018-09-26T15:15:23Z</time>
      </trkpt>
      <trkpt lat="45.50467" lon="4.18855">
        <ele>404</ele>
        <time>2018-09-26T15:16:23Z</time>
      </trkpt>
      <trkpt lat="45.50308" lon="4.18755">
        <ele>405</ele>
        <time>2018-09-26T15:17:23Z</time>
      </trkpt>
      <trkpt lat="45.50154" lon="4.18698">
        <ele>404</ele>
        <time>2018-09-26T15:18:23Z</time>
      </trkpt>
      <trkpt lat="45.49904" lon="4.18618">
        <ele>409</ele>
        <time>2018-09-26T15:19:23Z</time>
      </trkpt>
      <trkpt lat="45.4976" lon="4.18582">
        <ele>414</ele>
        <time>2018-09-26T15:20:23Z</time>
      </trkpt>
      <trkpt lat="45.49657" lon="4.18566">
        <ele>415</ele>
        <time>2018-09-26T15:21:23Z</time>
      </trkpt>
      <trkpt lat="45.49491" lon="4.18557">
        <ele>414</ele>
        <time>2018-09-26T15:22:23Z</time>
      </trkpt>
      <trkpt lat="45.49364" lon="4.1856">
        <ele>414</ele>
        <time>2018-09-26T15:23:23Z</time>
      </trkpt>
      <trkpt lat="45.49182" lon="4.18577">
        <ele>416</ele>
        <time>2018-09-26T15:24:23Z</time>
      </trkpt>
      <trkpt lat="45.49027" lon="4.18604">
        <ele>415</ele>
        <time>2018-09-26T15:25:23Z</time>
      </trkpt>
      <trkpt lat="45.48889" lon="4.18645">
        <ele>414</ele>
        <time>2018-09-26T15:26:23Z</time>
      </trkpt>
      <trkpt lat="45.48814" lon="4.18667">
        <ele>416</ele>
        <time>2018-09-26T15:27:23Z</time>
      </trkpt>
      <trkpt lat="45.48681" lon="4.18625">
        <ele>419</ele>
        <time>2018-09-26T15:28:23Z</time>
      </trkpt>
      <trkpt lat="45.4864" lon="4.18606">
        <ele>421</ele>
        <time>2018-09-26T15:29:23Z</time>
      </trkpt>
      <trkpt lat="45.48588" lon="4.18602">
        <ele>424</ele>
        <time>2018-09-26T15:30:23Z</time>
      </trkpt>
      <trkpt lat="45.48554" lon="4.18606">
        <ele>427</ele>
        <time>2018-09-26T15:31:23Z</time>
      </trkpt>
      <trkpt lat="45.48508" lon="4.18624">
        <ele>430</ele>
        <time>2018-09-26T15:32:23Z</time>
      </trkpt>
      <trkpt lat="45.48417" lon="4.18669">
        <ele>434</ele>
        <time>2018-09-26T15:33:23Z</time>
      </trkpt>
      <trkpt lat="45.48249" lon="4.1873">
        <ele>437</ele>
        <time>2018-09-26T15:34:23Z</time>
      </trkpt>
      <trkpt lat="45.48159" lon="4.1875">
        <ele>442</ele>
        <time>2018-09-26T15:35:23Z</time>
      </trkpt>
      <trkpt lat="45.48049" lon="4.18748">
        <ele>443</ele>
        <time>2018-09-26T15:36:23Z</time>
      </trkpt>
      <trkpt lat="45.47988" lon="4.18735">
        <ele>442</ele>
        <time>2018-09-26T15:37:23Z</time>
      </trkpt>
      <trkpt lat="45.47922" lon="4.18689">
        <ele>446</ele>
        <time>2018-09-26T15:38:23Z</time>
      </trkpt>
      <trkpt lat="45.47893" lon="4.18658">
        <ele>448</ele>
        <time>2018-09-26T15:39:23Z</time>
      </trkpt>
      <trkpt lat="45.47872" lon="4.18625">
        <ele>449</ele>
        <time>2018-09-26T15:40:23Z</time>
      </trkpt>
      <trkpt lat="45.47837" lon="4.18573">
        <ele>449</ele>
        <time>2018-09-26T15:41:23Z</time>
      </trkpt>
      <trkpt lat="45.47748" lon="4.18362">
        <ele>454</ele>
        <time>2018-09-26T15:42:23Z</time>
      </trkpt>
      <trkpt lat="45.47725" lon="4.18306">
        <ele>457</ele>
        <time>2018-09-26T15:43:23Z</time>
      </trkpt>
      <trkpt lat="45.47643" lon="4.18207">
        <ele>461</ele>
        <time>2018-09-26T15:44:23Z</time>
      </trkpt>
      <trkpt lat="45.47544" lon="4.18086">
        <ele>466</ele>
        <time>2018-09-26T15:45:23Z</time>
      </trkpt>
      <trkpt lat="45.47477" lon="4.1799">
        <ele>471</ele>
        <time>2018-09-26T15:46:23Z</time>
      </trkpt>
      <trkpt lat="45.47406" lon="4.17824">
        <ele>472</ele>
        <time>2018-09-26T15:47:23Z</time>
      </trkpt>
      <trkpt lat="45.47358" lon="4.17739">
        <ele>474</ele>
        <time>2018-09-26T15:48:23Z</time>
      </trkpt>
      <trkpt lat="45.47344" lon="4.17718">
        <ele>475</ele>
        <time>2018-09-26T15:49:23Z</time>
      </trkpt>
      <trkpt lat="45.47309" lon="4.17716">
        <ele>473</ele>
        <time>2018-09-26T15:50:23Z</time>
      </trkpt>
      <trkpt lat="45.47278" lon="4.17656">
        <ele>474</ele>
        <time>2018-09-26T15:51:23Z</time>
      </trkpt>
      <trkpt lat="45.47231" lon="4.17624">
        <ele>475</ele>
        <time>2018-09-26T15:52:23Z</time>
      </trkpt>
      <trkpt lat="45.47215" lon="4.17611">
        <ele>476</ele>
        <time>2018-09-26T15:53:23Z</time>
      </trkpt>
      <trkpt lat="45.47223" lon="4.17664">
        <ele>475</ele>
        <time>2018-09-26T15:54:23Z</time>
      </trkpt>
      <trkpt lat="45.47234" lon="4.17723">
        <ele>473</ele>
        <time>2018-09-26T15:55:23Z</time>
      </trkpt>
      <trkpt lat="45.4723" lon="4.17754">
        <ele>474</ele>
        <time>2018-09-26T15:56:23Z</time>
      </trkpt>
      <trkpt lat="45.47212" lon="4.17758">
        <ele>476</ele>
        <time>2018-09-26T15:57:23Z</time>
      </trkpt>
      <trkpt lat="45.47191" lon="4.17813">
        <ele>481</ele>
        <time>2018-09-26T15:58:23Z</time>
      </trkpt>
      <trkpt lat="45.4718" lon="4.17864">
        <ele>482</ele>
        <time>2018-09-26T15:59:23Z</time>
      </trkpt>
      <trkpt lat="45.47168" lon="4.179">
        <ele>484</ele>
        <time>2018-09-26T16:00:23Z</time>
      </trkpt>
      <trkpt lat="45.47163" lon="4.17909">
        <ele>484</ele>
        <time>2018-09-26T16:01:23Z</time>
      </trkpt>
      <trkpt lat="45.47179" lon="4.17943">
        <ele>483</ele>
        <time>2018-09-26T16:02:23Z</time>
      </trkpt>
      <trkpt lat="45.47164" lon="4.17953">
        <ele>486</ele>
        <time>2018-09-26T16:03:23Z</time>
      </trkpt>
      <trkpt lat="45.47155" lon="4.17966">
        <ele>487</ele>
        <time>2018-09-26T16:04:23Z</time>
      </trkpt>
      <trkpt lat="45.47146" lon="4.17979">
        <ele>488</ele>
        <time>2018-09-26T16:05:23Z</time>
      </trkpt>
      <trkpt lat="45.47147" lon="4.17997">
        <ele>489</ele>
        <time>2018-09-26T16:06:23Z</time>
      </trkpt>
      <trkpt lat="45.47155" lon="4.18018">
        <ele>489</ele>
        <time>2018-09-26T16:07:23Z</time>
      </trkpt>
      <trkpt lat="45.47163" lon="4.18038">
        <ele>489</ele>
        <time>2018-09-26T16:08:23Z</time>
      </trkpt>
      <trkpt lat="45.47172" lon="4.18057">
        <ele>489</ele>
        <time>2018-09-26T16:09:23Z</time>
      </trkpt>
      <trkpt lat="45.47191" lon="4.18104">
        <ele>488</ele>
        <time>2018-09-26T16:10:23Z</time>
      </trkpt>
      <trkpt lat="45.47199" lon="4.18132">
        <ele>488</ele>
        <time>2018-09-26T16:11:23Z</time>
      </trkpt>
      <trkpt lat="45.47152" lon="4.18292">
        <ele>492</ele>
        <time>2018-09-26T16:12:23Z</time>
      </trkpt>
      <trkpt lat="45.4713" lon="4.1835">
        <ele>490</ele>
        <time>2018-09-26T16:13:23Z</time>
      </trkpt>
      <trkpt lat="45.47118" lon="4.18392">
        <ele>486</ele>
        <time>2018-09-26T16:14:23Z</time>
      </trkpt>
      <trkpt lat="45.47098" lon="4.18403">
        <ele>484</ele>
        <time>2018-09-26T16:15:23Z</time>
      </trkpt>
      <trkpt lat="45.47066" lon="4.1841">
        <ele>481</ele>
        <time>2018-09-26T16:16:23Z</time>
      </trkpt>
      <trkpt lat="45.47042" lon="4.18403">
        <ele>479</ele>
        <time>2018-09-26T16:17:23Z</time>
      </trkpt>
      <trkpt lat="45.47011" lon="4.18383">
        <ele>479</ele>
        <time>2018-09-26T16:18:23Z</time>
      </trkpt>
      <trkpt lat="45.4697" lon="4.18386">
        <ele>475</ele>
        <time>2018-09-26T16:19:23Z</time>
      </trkpt>
      <trkpt lat="45.46934" lon="4.18389">
        <ele>472</ele>
        <time>2018-09-26T16:20:23Z</time>
      </trkpt>
      <trkpt lat="45.46882" lon="4.18396">
        <ele>467</ele>
        <time>2018-09-26T16:21:23Z</time>
      </trkpt>
      <trkpt lat="45.46819" lon="4.18413">
        <ele>460</ele>
        <time>2018-09-26T16:22:23Z</time>
      </trkpt>
      <trkpt lat="45.46799" lon="4.18414">
        <ele>458</ele>
        <time>2018-09-26T16:23:23Z</time>
      </trkpt>
      <trkpt lat="45.46799" lon="4.18425">
        <ele>456</ele>
        <time>2018-09-26T16:24:23Z</time>
      </trkpt>
      <trkpt lat="45.46826" lon="4.18445">
        <ele>454</ele>
        <time>2018-09-26T16:25:23Z</time>
      </trkpt>
      <trkpt lat="45.46869" lon="4.18469">
        <ele>452</ele>
        <time>2018-09-26T16:26:23Z</time>
      </trkpt>
      <trkpt lat="45.46916" lon="4.185">
        <ele>448</ele>
        <time>2018-09-26T16:27:23Z</time>
      </trkpt>
      <trkpt lat="45.46953" lon="4.18521">
        <ele>447</ele>
        <time>2018-09-26T16:28:23Z</time>
      </trkpt>
      <trkpt lat="45.46999" lon="4.18552">
        <ele>442</ele>
        <time>2018-09-26T16:29:23Z</time>
      </trkpt>
      <trkpt lat="45.47027" lon="4.18564">
        <ele>440</ele>
        <time>2018-09-26T16:30:23Z</time>
      </trkpt>
      <trkpt lat="45.47058" lon="4.1858">
        <ele>436</ele>
        <time>2018-09-26T16:31:23Z</time>
      </trkpt>
      <trkpt lat="45.4708" lon="4.18596">
        <ele>433</ele>
        <time>2018-09-26T16:32:23Z</time>
      </trkpt>
      <trkpt lat="45.47117" lon="4.18615">
        <ele>434</ele>
        <time>2018-09-26T16:33:23Z</time>
      </trkpt>
      <trkpt lat="45.47137" lon="4.18631">
        <ele>433</ele>
        <time>2018-09-26T16:34:23Z</time>
      </trkpt>
      <trkpt lat="45.47103" lon="4.18694">
        <ele>424</ele>
        <time>2018-09-26T16:35:23Z</time>
      </trkpt>
      <trkpt lat="45.47114" lon="4.18724">
        <ele>424</ele>
        <time>2018-09-26T16:36:23Z</time>
      </trkpt>
      <trkpt lat="45.47119" lon="4.1875">
        <ele>423</ele>
        <time>2018-09-26T16:37:23Z</time>
      </trkpt>
      <trkpt lat="45.47128" lon="4.18786">
        <ele>423</ele>
        <time>2018-09-26T16:38:23Z</time>
      </trkpt>
      <trkpt lat="45.47124" lon="4.18816">
        <ele>424</ele>
        <time>2018-09-26T16:39:23Z</time>
      </trkpt>
      <trkpt lat="45.47134" lon="4.18834">
        <ele>424</ele>
        <time>2018-09-26T16:40:23Z</time>
      </trkpt>
      <trkpt lat="45.47143" lon="4.18847">
        <ele>423</ele>
        <time>2018-09-26T16:41:23Z</time>
      </trkpt>
      <trkpt lat="45.47147" lon="4.18859">
        <ele>424</ele>
        <time>2018-09-26T16:42:23Z</time>
      </trkpt>
      <trkpt lat="45.47139" lon="4.18875">
        <ele>424</ele>
        <time>2018-09-26T16:43:23Z</time>
      </trkpt>
      <trkpt lat="45.47123" lon="4.1889">
        <ele>426</ele>
        <time>2018-09-26T16:44:23Z</time>
      </trkpt>
      <trkpt lat="45.47109" lon="4.18895">
        <ele>428</ele>
        <time>2018-09-26T16:45:23Z</time>
      </trkpt>
      <trkpt lat="45.47138" lon="4.18959">
        <ele>430</ele>
        <time>2018-09-26T16:46:23Z</time>
      </trkpt>
      <trkpt lat="45.47145" lon="4.19015">
        <ele>435</ele>
        <time>2018-09-26T16:47:23Z</time>
      </trkpt>
      <trkpt lat="45.47184" lon="4.19066">
        <ele>437</ele>
        <time>2018-09-26T16:48:23Z</time>
      </trkpt>
      <trkpt lat="45.47194" lon="4.19089">
        <ele>438</ele>
        <time>2018-09-26T16:49:23Z</time>
      </trkpt>
      <trkpt lat="45.472" lon="4.19119">
        <ele>441</ele>
        <time>2018-09-26T16:50:23Z</time>
      </trkpt>
      <trkpt lat="45.47203" lon="4.19152">
        <ele>444</ele>
        <time>2018-09-26T16:51:23Z</time>
      </trkpt>
      <trkpt lat="45.47208" lon="4.19181">
        <ele>446</ele>
        <time>2018-09-26T16:52:23Z</time>
      </trkpt>
      <trkpt lat="45.47216" lon="4.19215">
        <ele>448</ele>
        <time>2018-09-26T16:53:23Z</time>
      </trkpt>
      <trkpt lat="45.47226" lon="4.19264">
        <ele>451</ele>
        <time>2018-09-26T16:54:23Z</time>
      </trkpt>
      <trkpt lat="45.47232" lon="4.19312">
        <ele>454</ele>
        <time>2018-09-26T16:55:23Z</time>
      </trkpt>
      <trkpt lat="45.47236" lon="4.19356">
        <ele>456</ele>
        <time>2018-09-26T16:56:23Z</time>
      </trkpt>
      <trkpt lat="45.47234" lon="4.1939">
        <ele>458</ele>
        <time>2018-09-26T16:57:23Z</time>
      </trkpt>
      <trkpt lat="45.47226" lon="4.19408">
        <ele>460</ele>
        <time>2018-09-26T16:58:23Z</time>
      </trkpt>
      <trkpt lat="45.47209" lon="4.19426">
        <ele>464</ele>
        <time>2018-09-26T16:59:23Z</time>
      </trkpt>
      <trkpt lat="45.47191" lon="4.19442">
        <ele>468</ele>
        <time>2018-09-26T17:00:23Z</time>
      </trkpt>
      <trkpt lat="45.47166" lon="4.19452">
        <ele>472</ele>
        <time>2018-09-26T17:01:23Z</time>
      </trkpt>
      <trkpt lat="45.47147" lon="4.19466">
        <ele>475</ele>
        <time>2018-09-26T17:02:23Z</time>
      </trkpt>
      <trkpt lat="45.47112" lon="4.19472">
        <ele>478</ele>
        <time>2018-09-26T17:03:23Z</time>
      </trkpt>
      <trkpt lat="45.47081" lon="4.19473">
        <ele>481</ele>
        <time>2018-09-26T17:04:23Z</time>
      </trkpt>
      <trkpt lat="45.47045" lon="4.19479">
        <ele>484</ele>
        <time>2018-09-26T17:05:23Z</time>
      </trkpt>
      <trkpt lat="45.47014" lon="4.19476">
        <ele>486</ele>
        <time>2018-09-26T17:06:23Z</time>
      </trkpt>
      <trkpt lat="45.47" lon="4.19482">
        <ele>487</ele>
        <time>2018-09-26T17:07:23Z</time>
      </trkpt>
      <trkpt lat="45.46994" lon="4.19501">
        <ele>489</ele>
        <time>2018-09-26T17:08:23Z</time>
      </trkpt>
      <trkpt lat="45.46994" lon="4.19522">
        <ele>490</ele>
        <time>2018-09-26T17:09:23Z</time>
      </trkpt>
      <trkpt lat="45.46975" lon="4.19537">
        <ele>492</ele>
        <time>2018-09-26T17:10:23Z</time>
      </trkpt>
      <trkpt lat="45.46957" lon="4.19558">
        <ele>495</ele>
        <time>2018-09-26T17:11:23Z</time>
      </trkpt>
      <trkpt lat="45.4691" lon="4.19605">
        <ele>500</ele>
        <time>2018-09-26T17:12:23Z</time>
      </trkpt>
      <trkpt lat="45.46893" lon="4.19608">
        <ele>501</ele>
        <time>2018-09-26T17:13:23Z</time>
      </trkpt>
      <trkpt lat="45.46871" lon="4.19606">
        <ele>504</ele>
        <time>2018-09-26T17:14:23Z</time>
      </trkpt>
      <trkpt lat="45.46846" lon="4.19613">
        <ele>506</ele>
        <time>2018-09-26T17:15:23Z</time>
      </trkpt>
      <trkpt lat="45.46791" lon="4.19611">
        <ele>511</ele>
        <time>2018-09-26T17:16:23Z</time>
      </trkpt>
      <trkpt lat="45.46709" lon="4.19699">
        <ele>520</ele>
        <time>2018-09-26T17:17:23Z</time>
      </trkpt>
      <trkpt lat="45.46709" lon="4.19743">
        <ele>519</ele>
        <time>2018-09-26T17:18:23Z</time>
      </trkpt>
      <trkpt lat="45.46699" lon="4.19781">
        <ele>519</ele>
        <time>2018-09-26T17:19:23Z</time>
      </trkpt>
      <trkpt lat="45.4669" lon="4.19818">
        <ele>519</ele>
        <time>2018-09-26T17:20:23Z</time>
      </trkpt>
      <trkpt lat="45.46671" lon="4.19874">
        <ele>520</ele>
        <time>2018-09-26T17:21:23Z</time>
      </trkpt>
      <trkpt lat="45.46655" lon="4.19922">
        <ele>519</ele>
        <time>2018-09-26T17:22:23Z</time>
      </trkpt>
      <trkpt lat="45.46644" lon="4.19945">
        <ele>519</ele>
        <time>2018-09-26T17:23:23Z</time>
      </trkpt>
      <trkpt lat="45.46651" lon="4.19962">
        <ele>517</ele>
        <time>2018-09-26T17:24:23Z</time>
      </trkpt>
      <trkpt lat="45.4665" lon="4.19995">
        <ele>516</ele>
        <time>2018-09-26T17:25:23Z</time>
      </trkpt>
      <trkpt lat="45.46639" lon="4.2002">
        <ele>514</ele>
        <time>2018-09-26T17:26:23Z</time>
      </trkpt>
      <trkpt lat="45.46631" lon="4.20025">
        <ele>514</ele>
        <time>2018-09-26T17:27:23Z</time>
      </trkpt>
      <trkpt lat="45.46621" lon="4.20026">
        <ele>515</ele>
        <time>2018-09-26T17:28:23Z</time>
      </trkpt>
      <trkpt lat="45.46608" lon="4.20021">
        <ele>517</ele>
        <time>2018-09-26T17:29:23Z</time>
      </trkpt>
      <trkpt lat="45.46574" lon="4.20031">
        <ele>519</ele>
        <time>2018-09-26T17:30:23Z</time>
      </trkpt>
      <trkpt lat="45.46531" lon="4.20049">
        <ele>521</ele>
        <time>2018-09-26T17:31:23Z</time>
      </trkpt>
      <trkpt lat="45.46497" lon="4.20059">
        <ele>523</ele>
        <time>2018-09-26T17:32:23Z</time>
      </trkpt>
      <trkpt lat="45.46471" lon="4.20055">
        <ele>525</ele>
        <time>2018-09-26T17:33:23Z</time>
      </trkpt>
      <trkpt lat="45.46461" lon="4.20055">
        <ele>526</ele>
        <time>2018-09-26T17:34:23Z</time>
      </trkpt>
      <trkpt lat="45.46437" lon="4.20024">
        <ele>530</ele>
        <time>2018-09-26T17:35:23Z</time>
      </trkpt>
      <trkpt lat="45.46428" lon="4.20016">
        <ele>531</ele>
        <time>2018-09-26T17:36:23Z</time>
      </trkpt>
      <trkpt lat="45.46398" lon="4.20008">
        <ele>534</ele>
        <time>2018-09-26T17:37:23Z</time>
      </trkpt>
      <trkpt lat="45.46364" lon="4.20003">
        <ele>537</ele>
        <time>2018-09-26T17:38:23Z</time>
      </trkpt>
      <trkpt lat="45.46321" lon="4.19989">
        <ele>543</ele>
        <time>2018-09-26T17:39:23Z</time>
      </trkpt>
      <trkpt lat="45.46307" lon="4.20007">
        <ele>543</ele>
        <time>2018-09-26T17:40:23Z</time>
      </trkpt>
      <trkpt lat="45.46274" lon="4.20045">
        <ele>545</ele>
        <time>2018-09-26T17:41:23Z</time>
      </trkpt>
      <trkpt lat="45.4626" lon="4.2006">
        <ele>546</ele>
        <time>2018-09-26T17:42:23Z</time>
      </trkpt>
      <trkpt lat="45.46244" lon="4.20075">
        <ele>547</ele>
        <time>2018-09-26T17:43:23Z</time>
      </trkpt>
      <trkpt lat="45.46182" lon="4.20102">
        <ele>551</ele>
        <time>2018-09-26T17:44:23Z</time>
      </trkpt>
      <trkpt lat="45.46138" lon="4.20132">
        <ele>553</ele>
        <time>2018-09-26T17:45:23Z</time>
      </trkpt>
      <trkpt lat="45.46076" lon="4.20181">
        <ele>554</ele>
        <time>2018-09-26T17:46:23Z</time>
      </trkpt>
      <trkpt lat="45.45979" lon="4.20251">
        <ele>561</ele>
        <time>2018-09-26T17:47:23Z</time>
      </trkpt>
      <trkpt lat="45.45957" lon="4.20268">
        <ele>563</ele>
        <time>2018-09-26T17:48:23Z</time>
      </trkpt>
      <trkpt lat="45.45908" lon="4.20295">
        <ele>567</ele>
        <time>2018-09-26T17:49:23Z</time>
      </trkpt>
      <trkpt lat="45.45888" lon="4.20309">
        <ele>569</ele>
        <time>2018-09-26T17:50:23Z</time>
      </trkpt>
      <trkpt lat="45.45829" lon="4.20318">
        <ele>575</ele>
        <time>2018-09-26T17:51:23Z</time>
      </trkpt>
      <trkpt lat="45.45774" lon="4.2033">
        <ele>578</ele>
        <time>2018-09-26T17:52:23Z</time>
      </trkpt>
      <trkpt lat="45.4573" lon="4.20345">
        <ele>580</ele>
        <time>2018-09-26T17:53:23Z</time>
      </trkpt>
      <trkpt lat="45.45695" lon="4.20362">
        <ele>582</ele>
        <time>2018-09-26T17:54:23Z</time>
      </trkpt>
      <trkpt lat="45.45671" lon="4.20372">
        <ele>584</ele>
        <time>2018-09-26T17:55:23Z</time>
      </trkpt>
      <trkpt lat="45.45635" lon="4.20378">
        <ele>587</ele>
        <time>2018-09-26T17:56:23Z</time>
      </trkpt>
      <trkpt lat="45.45604" lon="4.20414">
        <ele>590</ele>
        <time>2018-09-26T17:57:23Z</time>
      </trkpt>
      <trkpt lat="45.45577" lon="4.20453">
        <ele>593</ele>
        <time>2018-09-26T17:58:23Z</time>
      </trkpt>
      <trkpt lat="45.45563" lon="4.2049">
        <ele>595</ele>
        <time>2018-09-26T17:59:23Z</time>
      </trkpt>
      <trkpt lat="45.4554" lon="4.20565">
        <ele>597</ele>
        <time>2018-09-26T18:00:23Z</time>
      </trkpt>
      <trkpt lat="45.45513" lon="4.20633">
        <ele>600</ele>
        <time>2018-09-26T18:01:23Z</time>
      </trkpt>
      <trkpt lat="45.45483" lon="4.2071">
        <ele>603</ele>
        <time>2018-09-26T18:02:23Z</time>
      </trkpt>
      <trkpt lat="45.45462" lon="4.20771">
        <ele>601</ele>
        <time>2018-09-26T18:03:23Z</time>
      </trkpt>
      <trkpt lat="45.45453" lon="4.20801">
        <ele>599</ele>
        <time>2018-09-26T18:04:23Z</time>
      </trkpt>
      <trkpt lat="45.45433" lon="4.20812">
        <ele>599</ele>
        <time>2018-09-26T18:05:23Z</time>
      </trkpt>
      <trkpt lat="45.45415" lon="4.20817">
        <ele>599</ele>
        <time>2018-09-26T18:06:23Z</time>
      </trkpt>
      <trkpt lat="45.45403" lon="4.20815">
        <ele>600</ele>
        <time>2018-09-26T18:07:23Z</time>
      </trkpt>
      <trkpt lat="45.45389" lon="4.20805">
        <ele>603</ele>
        <time>2018-09-26T18:08:23Z</time>
      </trkpt>
      <trkpt lat="45.45379" lon="4.20792">
        <ele>605</ele>
        <time>2018-09-26T18:09:23Z</time>
      </trkpt>
      <trkpt lat="45.4537" lon="4.20792">
        <ele>606</ele>
        <time>2018-09-26T18:10:23Z</time>
      </trkpt>
      <trkpt lat="45.45373" lon="4.20818">
        <ele>604</ele>
        <time>2018-09-26T18:11:23Z</time>
      </trkpt>
      <trkpt lat="45.45375" lon="4.20851">
        <ele>602</ele>
        <time>2018-09-26T18:12:23Z</time>
      </trkpt>
      <trkpt lat="45.45371" lon="4.2087">
        <ele>602</ele>
        <time>2018-09-26T18:13:23Z</time>
      </trkpt>
      <trkpt lat="45.45361" lon="4.20894">
        <ele>603</ele>
        <time>2018-09-26T18:14:23Z</time>
      </trkpt>
      <trkpt lat="45.45346" lon="4.20909">
        <ele>605</ele>
        <time>2018-09-26T18:15:23Z</time>
      </trkpt>
      <trkpt lat="45.45342" lon="4.2093">
        <ele>605</ele>
        <time>2018-09-26T18:16:23Z</time>
      </trkpt>
      <trkpt lat="45.4535" lon="4.20975">
        <ele>605</ele>
        <time>2018-09-26T18:17:23Z</time>
      </trkpt>
      <trkpt lat="45.45366" lon="4.21003">
        <ele>604</ele>
        <time>2018-09-26T18:18:23Z</time>
      </trkpt>
      <trkpt lat="45.45404" lon="4.21101">
        <ele>603</ele>
        <time>2018-09-26T18:19:23Z</time>
      </trkpt>
      <trkpt lat="45.45423" lon="4.21137">
        <ele>601</ele>
        <time>2018-09-26T18:20:23Z</time>
      </trkpt>
      <trkpt lat="45.4561" lon="4.21248">
        <ele>599</ele>
        <time>2018-09-26T18:21:23Z</time>
      </trkpt>
      <trkpt lat="45.45638" lon="4.21276">
        <ele>598</ele>
        <time>2018-09-26T18:22:23Z</time>
      </trkpt>
      <trkpt lat="45.45648" lon="4.213">
        <ele>598</ele>
        <time>2018-09-26T18:23:23Z</time>
      </trkpt>
      <trkpt lat="45.45664" lon="4.21339">
        <ele>597</ele>
        <time>2018-09-26T18:24:23Z</time>
      </trkpt>
      <trkpt lat="45.45674" lon="4.2137">
        <ele>598</ele>
        <time>2018-09-26T18:25:23Z</time>
      </trkpt>
      <trkpt lat="45.45676" lon="4.2139">
        <ele>599</ele>
        <time>2018-09-26T18:26:23Z</time>
      </trkpt>
      <trkpt lat="45.45677" lon="4.21432">
        <ele>601</ele>
        <time>2018-09-26T18:27:23Z</time>
      </trkpt>
      <trkpt lat="45.45682" lon="4.21463">
        <ele>603</ele>
        <time>2018-09-26T18:28:23Z</time>
      </trkpt>
      <trkpt lat="45.45695" lon="4.21484">
        <ele>603</ele>
        <time>2018-09-26T18:29:23Z</time>
      </trkpt>
      <trkpt lat="45.45709" lon="4.2152">
        <ele>604</ele>
        <time>2018-09-26T18:30:23Z</time>
      </trkpt>
      <trkpt lat="45.45701" lon="4.2169">
        <ele>615</ele>
        <time>2018-09-26T18:31:23Z</time>
      </trkpt>
      <trkpt lat="45.45742" lon="4.21695">
        <ele>614</ele>
        <time>2018-09-26T18:32:23Z</time>
      </trkpt>
      <trkpt lat="45.45809" lon="4.2167">
        <ele>609</ele>
        <time>2018-09-26T18:33:23Z</time>
      </trkpt>
      <trkpt lat="45.4592" lon="4.21624">
        <ele>600</ele>
        <time>2018-09-26T18:34:23Z</time>
      </trkpt>
      <trkpt lat="45.45967" lon="4.21615">
        <ele>593</ele>
        <time>2018-09-26T18:35:23Z</time>
      </trkpt>
      <trkpt lat="45.46006" lon="4.21597">
        <ele>589</ele>
        <time>2018-09-26T18:36:23Z</time>
      </trkpt>
      <trkpt lat="45.46038" lon="4.2158">
        <ele>584</ele>
        <time>2018-09-26T18:37:23Z</time>
      </trkpt>
      <trkpt lat="45.46118" lon="4.21613">
        <ele>574</ele>
        <time>2018-09-26T18:38:23Z</time>
      </trkpt>
      <trkpt lat="45.46146" lon="4.21618">
        <ele>571</ele>
        <time>2018-09-26T18:39:23Z</time>
      </trkpt>
      <trkpt lat="45.46222" lon="4.21658">
        <ele>563</ele>
        <time>2018-09-26T18:40:23Z</time>
      </trkpt>
      <trkpt lat="45.46249" lon="4.21683">
        <ele>559</ele>
        <time>2018-09-26T18:41:23Z</time>
      </trkpt>
      <trkpt lat="45.46276" lon="4.21734">
        <ele>553</ele>
        <time>2018-09-26T18:42:23Z</time>
      </trkpt>
      <trkpt lat="45.46317" lon="4.21805">
        <ele>546</ele>
        <time>2018-09-26T18:43:23Z</time>
      </trkpt>
      <trkpt lat="45.46367" lon="4.21904">
        <ele>537</ele>
        <time>2018-09-26T18:44:23Z</time>
      </trkpt>
      <trkpt lat="45.46386" lon="4.21972">
        <ele>532</ele>
        <time>2018-09-26T18:45:23Z</time>
      </trkpt>
      <trkpt lat="45.46403" lon="4.22008">
        <ele>529</ele>
        <time>2018-09-26T18:46:23Z</time>
      </trkpt>
      <trkpt lat="45.46434" lon="4.22038">
        <ele>526</ele>
        <time>2018-09-26T18:47:23Z</time>
      </trkpt>
      <trkpt lat="45.46475" lon="4.22078">
        <ele>520</ele>
        <time>2018-09-26T18:48:23Z</time>
      </trkpt>
      <trkpt lat="45.46487" lon="4.22093">
        <ele>518</ele>
        <time>2018-09-26T18:49:23Z</time>
      </trkpt>
      <trkpt lat="45.46504" lon="4.22116">
        <ele>514</ele>
        <time>2018-09-26T18:50:23Z</time>
      </trkpt>
      <trkpt lat="45.46543" lon="4.22129">
        <ele>510</ele>
        <time>2018-09-26T18:51:23Z</time>
      </trkpt>
      <trkpt lat="45.4658" lon="4.22125">
        <ele>508</ele>
        <time>2018-09-26T18:52:23Z</time>
      </trkpt>
      <trkpt lat="45.46605" lon="4.22114">
        <ele>507</ele>
        <time>2018-09-26T18:53:23Z</time>
      </trkpt>
      <trkpt lat="45.46638" lon="4.22115">
        <ele>503</ele>
        <time>2018-09-26T18:54:23Z</time>
      </trkpt>
      <trkpt lat="45.46642" lon="4.22129">
        <ele>500</ele>
        <time>2018-09-26T18:55:23Z</time>
      </trkpt>
      <trkpt lat="45.46631" lon="4.22139">
        <ele>500</ele>
        <time>2018-09-26T18:56:23Z</time>
      </trkpt>
      <trkpt lat="45.46608" lon="4.22166">
        <ele>499</ele>
        <time>2018-09-26T18:57:23Z</time>
      </trkpt>
      <trkpt lat="45.46591" lon="4.22182">
        <ele>499</ele>
        <time>2018-09-26T18:58:23Z</time>
      </trkpt>
      <trkpt lat="45.46577" lon="4.22195">
        <ele>499</ele>
        <time>2018-09-26T18:59:23Z</time>
      </trkpt>
      <trkpt lat="45.46556" lon="4.222">
        <ele>501</ele>
        <time>2018-09-26T19:00:23Z</time>
      </trkpt>
      <trkpt lat="45.46537" lon="4.22205">
        <ele>502</ele>
        <time>2018-09-26T19:01:23Z</time>
      </trkpt>
      <trkpt lat="45.46522" lon="4.22215">
        <ele>503</ele>
        <time>2018-09-26T19:02:23Z</time>
      </trkpt>
      <trkpt lat="45.46518" lon="4.22238">
        <ele>502</ele>
        <time>2018-09-26T19:03:23Z</time>
      </trkpt>
      <trkpt lat="45.46539" lon="4.22258">
        <ele>500</ele>
        <time>2018-09-26T19:04:23Z</time>
      </trkpt>
      <trkpt lat="45.46574" lon="4.22269">
        <ele>498</ele>
        <time>2018-09-26T19:05:23Z</time>
      </trkpt>
      <trkpt lat="45.46629" lon="4.22268">
        <ele>494</ele>
        <time>2018-09-26T19:06:23Z</time>
      </trkpt>
      <trkpt lat="45.46658" lon="4.22274">
        <ele>493</ele>
        <time>2018-09-26T19:07:23Z</time>
      </trkpt>
      <trkpt lat="45.46687" lon="4.22286">
        <ele>494</ele>
        <time>2018-09-26T19:08:23Z</time>
      </trkpt>
      <trkpt lat="45.4671" lon="4.22298">
        <ele>495</ele>
        <time>2018-09-26T19:09:23Z</time>
      </trkpt>
      <trkpt lat="45.46725" lon="4.22335">
        <ele>502</ele>
        <time>2018-09-26T19:10:23Z</time>
      </trkpt>
      <trkpt lat="45.46736" lon="4.22356">
        <ele>504</ele>
        <time>2018-09-26T19:11:23Z</time>
      </trkpt>
      <trkpt lat="45.46747" lon="4.22377">
        <ele>505</ele>
        <time>2018-09-26T19:12:23Z</time>
      </trkpt>
      <trkpt lat="45.46766" lon="4.22386">
        <ele>505</ele>
        <time>2018-09-26T19:13:23Z</time>
      </trkpt>
      <trkpt lat="45.468" lon="4.22543">
        <ele>505</ele>
        <time>2018-09-26T19:14:23Z</time>
      </trkpt>
      <trkpt lat="45.46814" lon="4.22585">
        <ele>504</ele>
        <time>2018-09-26T19:15:23Z</time>
      </trkpt>
      <trkpt lat="45.46829" lon="4.2264">
        <ele>503</ele>
        <time>2018-09-26T19:16:23Z</time>
      </trkpt>
      <trkpt lat="45.46845" lon="4.22741">
        <ele>503</ele>
        <time>2018-09-26T19:17:23Z</time>
      </trkpt>
      <trkpt lat="45.46839" lon="4.22777">
        <ele>504</ele>
        <time>2018-09-26T19:18:23Z</time>
      </trkpt>
      <trkpt lat="45.46829" lon="4.22829">
        <ele>506</ele>
        <time>2018-09-26T19:19:23Z</time>
      </trkpt>
      <trkpt lat="45.46818" lon="4.2287">
        <ele>505</ele>
        <time>2018-09-26T19:20:23Z</time>
      </trkpt>
      <trkpt lat="45.46801" lon="4.22944">
        <ele>503</ele>
        <time>2018-09-26T19:21:23Z</time>
      </trkpt>
      <trkpt lat="45.46781" lon="4.22984">
        <ele>503</ele>
        <time>2018-09-26T19:22:23Z</time>
      </trkpt>
      <trkpt lat="45.46763" lon="4.23024">
        <ele>502</ele>
        <time>2018-09-26T19:23:23Z</time>
      </trkpt>
      <trkpt lat="45.46739" lon="4.23067">
        <ele>500</ele>
        <time>2018-09-26T19:24:23Z</time>
      </trkpt>
      <trkpt lat="45.4675" lon="4.23164">
        <ele>496</ele>
        <time>2018-09-26T19:25:23Z</time>
      </trkpt>
      <trkpt lat="45.46756" lon="4.23184">
        <ele>495</ele>
        <time>2018-09-26T19:26:23Z</time>
      </trkpt>
      <trkpt lat="45.46798" lon="4.23243">
        <ele>492</ele>
        <time>2018-09-26T19:27:23Z</time>
      </trkpt>
      <trkpt lat="45.4682" lon="4.2327">
        <ele>491</ele>
        <time>2018-09-26T19:28:23Z</time>
      </trkpt>
      <trkpt lat="45.46842" lon="4.23302">
        <ele>489</ele>
        <time>2018-09-26T19:29:23Z</time>
      </trkpt>
      <trkpt lat="45.46874" lon="4.23341">
        <ele>487</ele>
        <time>2018-09-26T19:30:23Z</time>
      </trkpt>
      <trkpt lat="45.46836" lon="4.23331">
        <ele>486</ele>
        <time>2018-09-26T19:31:23Z</time>
      </trkpt>
      <trkpt lat="45.4677" lon="4.23309">
        <ele>485</ele>
        <time>2018-09-26T19:32:23Z</time>
      </trkpt>
      <trkpt lat="45.46736" lon="4.23312">
        <ele>483</ele>
        <time>2018-09-26T19:33:23Z</time>
      </trkpt>
      <trkpt lat="45.46702" lon="4.23321">
        <ele>481</ele>
        <time>2018-09-26T19:34:23Z</time>
      </trkpt>
      <trkpt lat="45.46681" lon="4.23326">
        <ele>480</ele>
        <time>2018-09-26T19:35:23Z</time>
      </trkpt>
      <trkpt lat="45.46665" lon="4.23322">
        <ele>480</ele>
        <time>2018-09-26T19:36:23Z</time>
      </trkpt>
      <trkpt lat="45.4665" lon="4.23317">
        <ele>480</ele>
        <time>2018-09-26T19:37:23Z</time>
      </trkpt>
      <trkpt lat="45.46638" lon="4.23298">
        <ele>482</ele>
        <time>2018-09-26T19:38:23Z</time>
      </trkpt>
      <trkpt lat="45.46622" lon="4.23292">
        <ele>483</ele>
        <time>2018-09-26T19:39:23Z</time>
      </trkpt>
      <trkpt lat="45.466" lon="4.233">
        <ele>482</ele>
        <time>2018-09-26T19:40:23Z</time>
      </trkpt>
      <trkpt lat="45.46568" lon="4.23315">
        <ele>481</ele>
        <time>2018-09-26T19:41:23Z</time>
      </trkpt>
      <trkpt lat="45.46541" lon="4.23316">
        <ele>484</ele>
        <time>2018-09-26T19:42:23Z</time>
      </trkpt>
      <trkpt lat="45.46532" lon="4.23328">
        <ele>483</ele>
        <time>2018-09-26T19:43:23Z</time>
      </trkpt>
      <trkpt lat="45.46526" lon="4.23349">
        <ele>484</ele>
        <time>2018-09-26T19:44:23Z</time>
      </trkpt>
      <trkpt lat="45.46525" lon="4.23368">
        <ele>484</ele>
        <time>2018-09-26T19:45:23Z</time>
      </trkpt>
      <trkpt lat="45.46533" lon="4.23385">
        <ele>484</ele>
        <time>2018-09-26T19:46:23Z</time>
      </trkpt>
      <trkpt lat="45.46548" lon="4.23415">
        <ele>484</ele>
        <time>2018-09-26T19:47:23Z</time>
      </trkpt>
      <trkpt lat="45.46551" lon="4.23435">
        <ele>484</ele>
        <time>2018-09-26T19:48:23Z</time>
      </trkpt>
      <trkpt lat="45.46546" lon="4.23453">
        <ele>484</ele>
        <time>2018-09-26T19:49:23Z</time>
      </trkpt>
      <trkpt lat="45.46528" lon="4.23459">
        <ele>486</ele>
        <time>2018-09-26T19:50:23Z</time>
      </trkpt>
      <trkpt lat="45.46504" lon="4.23456">
        <ele>489</ele>
        <time>2018-09-26T19:51:23Z</time>
      </trkpt>
      <trkpt lat="45.46489" lon="4.23449">
        <ele>490</ele>
        <time>2018-09-26T19:52:23Z</time>
      </trkpt>
      <trkpt lat="45.46458" lon="4.23436">
        <ele>494</ele>
        <time>2018-09-26T19:53:23Z</time>
      </trkpt>
      <trkpt lat="45.46431" lon="4.2343">
        <ele>498</ele>
        <time>2018-09-26T19:54:23Z</time>
      </trkpt>
      <trkpt lat="45.46406" lon="4.23423">
        <ele>501</ele>
        <time>2018-09-26T19:55:23Z</time>
      </trkpt>
      <trkpt lat="45.46383" lon="4.23411">
        <ele>503</ele>
        <time>2018-09-26T19:56:23Z</time>
      </trkpt>
      <trkpt lat="45.46362" lon="4.23398">
        <ele>504</ele>
        <time>2018-09-26T19:57:23Z</time>
      </trkpt>
      <trkpt lat="45.46343" lon="4.23388">
        <ele>506</ele>
        <time>2018-09-26T19:58:23Z</time>
      </trkpt>
      <trkpt lat="45.46331" lon="4.23388">
        <ele>507</ele>
        <time>2018-09-26T19:59:23Z</time>
      </trkpt>
      <trkpt lat="45.46317" lon="4.234">
        <ele>509</ele>
        <time>2018-09-26T20:00:23Z</time>
      </trkpt>
      <trkpt lat="45.46314" lon="4.2341">
        <ele>510</ele>
        <time>2018-09-26T20:01:23Z</time>
      </trkpt>
      <trkpt lat="45.46295" lon="4.23431">
        <ele>511</ele>
        <time>2018-09-26T20:02:23Z</time>
      </trkpt>
      <trkpt lat="45.46264" lon="4.23452">
        <ele>512</ele>
        <time>2018-09-26T20:03:23Z</time>
      </trkpt>
      <trkpt lat="45.46252" lon="4.23459">
        <ele>513</ele>
        <time>2018-09-26T20:04:23Z</time>
      </trkpt>
      <trkpt lat="45.46222" lon="4.23508">
        <ele>509</ele>
        <time>2018-09-26T20:05:23Z</time>
      </trkpt>
      <trkpt lat="45.46214" lon="4.2352">
        <ele>506</ele>
        <time>2018-09-26T20:06:23Z</time>
      </trkpt>
      <trkpt lat="45.462" lon="4.23528">
        <ele>505</ele>
        <time>2018-09-26T20:07:23Z</time>
      </trkpt>
      <trkpt lat="45.46149" lon="4.23528">
        <ele>507</ele>
        <time>2018-09-26T20:08:23Z</time>
      </trkpt>
      <trkpt lat="45.46123" lon="4.2353">
        <ele>505</ele>
        <time>2018-09-26T20:09:23Z</time>
      </trkpt>
      <trkpt lat="45.46111" lon="4.23526">
        <ele>506</ele>
        <time>2018-09-26T20:10:23Z</time>
      </trkpt>
      <trkpt lat="45.4606" lon="4.23509">
        <ele>509</ele>
        <time>2018-09-26T20:11:23Z</time>
      </trkpt>
      <trkpt lat="45.46041" lon="4.2351">
        <ele>509</ele>
        <time>2018-09-26T20:12:23Z</time>
      </trkpt>
      <trkpt lat="45.45973" lon="4.23525">
        <ele>510</ele>
        <time>2018-09-26T20:13:23Z</time>
      </trkpt>
      <trkpt lat="45.4596" lon="4.23519">
        <ele>510</ele>
        <time>2018-09-26T20:14:23Z</time>
      </trkpt>
      <trkpt lat="45.45941" lon="4.2352">
        <ele>511</ele>
        <time>2018-09-26T20:15:23Z</time>
      </trkpt>
      <trkpt lat="45.45937" lon="4.23535">
        <ele>512</ele>
        <time>2018-09-26T20:16:23Z</time>
      </trkpt>
      <trkpt lat="45.46032" lon="4.23623">
        <ele>504</ele>
        <time>2018-09-26T20:17:23Z</time>
      </trkpt>
      <trkpt lat="45.46037" lon="4.23646">
        <ele>504</ele>
        <time>2018-09-26T20:18:23Z</time>
      </trkpt>
      <trkpt lat="45.46033" lon="4.23662">
        <ele>507</ele>
        <time>2018-09-26T20:19:23Z</time>
      </trkpt>
      <trkpt lat="45.46027" lon="4.23675">
        <ele>510</ele>
        <time>2018-09-26T20:20:23Z</time>
      </trkpt>
      <trkpt lat="45.46018" lon="4.237">
        <ele>515</ele>
        <time>2018-09-26T20:21:23Z</time>
      </trkpt>
      <trkpt lat="45.4603" lon="4.23714">
        <ele>514</ele>
        <time>2018-09-26T20:22:23Z</time>
      </trkpt>
      <trkpt lat="45.46056" lon="4.2372">
        <ele>509</ele>
        <time>2018-09-26T20:23:23Z</time>
      </trkpt>
      <trkpt lat="45.46071" lon="4.23741">
        <ele>509</ele>
        <time>2018-09-26T20:24:23Z</time>
      </trkpt>
      <trkpt lat="45.46085" lon="4.23758">
        <ele>508</ele>
        <time>2018-09-26T20:25:23Z</time>
      </trkpt>
      <trkpt lat="45.46087" lon="4.23775">
        <ele>510</ele>
        <time>2018-09-26T20:26:23Z</time>
      </trkpt>
      <trkpt lat="45.46073" lon="4.23791">
        <ele>515</ele>
        <time>2018-09-26T20:27:23Z</time>
      </trkpt>
      <trkpt lat="45.4606" lon="4.23804">
        <ele>520</ele>
        <time>2018-09-26T20:28:23Z</time>
      </trkpt>
      <trkpt lat="45.4604" lon="4.23816">
        <ele>526</ele>
        <time>2018-09-26T20:29:23Z</time>
      </trkpt>
      <trkpt lat="45.46035" lon="4.23827">
        <ele>529</ele>
        <time>2018-09-26T20:30:23Z</time>
      </trkpt>
      <trkpt lat="45.46033" lon="4.23842">
        <ele>532</ele>
        <time>2018-09-26T20:31:23Z</time>
      </trkpt>
      <trkpt lat="45.46062" lon="4.23864">
        <ele>532</ele>
        <time>2018-09-26T20:32:23Z</time>
      </trkpt>
      <trkpt lat="45.46118" lon="4.23898">
        <ele>528</ele>
        <time>2018-09-26T20:33:23Z</time>
      </trkpt>
      <trkpt lat="45.46155" lon="4.23931">
        <ele>527</ele>
        <time>2018-09-26T20:34:23Z</time>
      </trkpt>
      <trkpt lat="45.46172" lon="4.23955">
        <ele>529</ele>
        <time>2018-09-26T20:35:23Z</time>
      </trkpt>
      <trkpt lat="45.46197" lon="4.23994">
        <ele>530</ele>
        <time>2018-09-26T20:36:23Z</time>
      </trkpt>
      <trkpt lat="45.46208" lon="4.24026">
        <ele>531</ele>
        <time>2018-09-26T20:37:23Z</time>
      </trkpt>
      <trkpt lat="45.46204" lon="4.24055">
        <ele>536</ele>
        <time>2018-09-26T20:38:23Z</time>
      </trkpt>
      <trkpt lat="45.46197" lon="4.24072">
        <ele>542</ele>
        <time>2018-09-26T20:39:23Z</time>
      </trkpt>
      <trkpt lat="45.46194" lon="4.24096">
        <ele>546</ele>
        <time>2018-09-26T20:40:23Z</time>
      </trkpt>
      <trkpt lat="45.46201" lon="4.24118">
        <ele>546</ele>
        <time>2018-09-26T20:41:23Z</time>
      </trkpt>
      <trkpt lat="45.46223" lon="4.24133">
        <ele>541</ele>
        <time>2018-09-26T20:42:23Z</time>
      </trkpt>
      <trkpt lat="45.46212" lon="4.2414">
        <ele>545</ele>
        <time>2018-09-26T20:43:23Z</time>
      </trkpt>
      <trkpt lat="45.46194" lon="4.24129">
        <ele>549</ele>
        <time>2018-09-26T20:44:23Z</time>
      </trkpt>
      <trkpt lat="45.46182" lon="4.24115">
        <ele>552</ele>
        <time>2018-09-26T20:45:23Z</time>
      </trkpt>
      <trkpt lat="45.46175" lon="4.241">
        <ele>553</ele>
        <time>2018-09-26T20:46:23Z</time>
      </trkpt>
      <trkpt lat="45.46173" lon="4.24089">
        <ele>553</ele>
        <time>2018-09-26T20:47:23Z</time>
      </trkpt>
      <trkpt lat="45.46167" lon="4.24066">
        <ele>552</ele>
        <time>2018-09-26T20:48:23Z</time>
      </trkpt>
      <trkpt lat="45.46161" lon="4.24059">
        <ele>553</ele>
        <time>2018-09-26T20:49:23Z</time>
      </trkpt>
      <trkpt lat="45.46155" lon="4.24081">
        <ele>558</ele>
        <time>2018-09-26T20:50:23Z</time>
      </trkpt>
      <trkpt lat="45.46158" lon="4.24106">
        <ele>559</ele>
        <time>2018-09-26T20:51:23Z</time>
      </trkpt>
      <trkpt lat="45.46164" lon="4.24132">
        <ele>559</ele>
        <time>2018-09-26T20:52:23Z</time>
      </trkpt>
      <trkpt lat="45.46176" lon="4.24173">
        <ele>559</ele>
        <time>2018-09-26T20:53:23Z</time>
      </trkpt>
      <trkpt lat="45.46183" lon="4.242">
        <ele>557</ele>
        <time>2018-09-26T20:54:23Z</time>
      </trkpt>
      <trkpt lat="45.46182" lon="4.24228">
        <ele>558</ele>
        <time>2018-09-26T20:55:23Z</time>
      </trkpt>
      <trkpt lat="45.46178" lon="4.24272">
        <ele>560</ele>
        <time>2018-09-26T20:56:23Z</time>
      </trkpt>
      <trkpt lat="45.46177" lon="4.2429">
        <ele>560</ele>
        <time>2018-09-26T20:57:23Z</time>
      </trkpt>
      <trkpt lat="45.46183" lon="4.2431">
        <ele>560</ele>
        <time>2018-09-26T20:58:23Z</time>
      </trkpt>
      <trkpt lat="45.4619" lon="4.2433">
        <ele>559</ele>
        <time>2018-09-26T20:59:23Z</time>
      </trkpt>
      <trkpt lat="45.46189" lon="4.24346">
        <ele>560</ele>
        <time>2018-09-26T21:00:23Z</time>
      </trkpt>
      <trkpt lat="45.46185" lon="4.24373">
        <ele>562</ele>
        <time>2018-09-26T21:01:23Z</time>
      </trkpt>
      <trkpt lat="45.46187" lon="4.24415">
        <ele>565</ele>
        <time>2018-09-26T21:02:23Z</time>
      </trkpt>
      <trkpt lat="45.46191" lon="4.24449">
        <ele>564</ele>
        <time>2018-09-26T21:03:23Z</time>
      </trkpt>
      <trkpt lat="45.46195" lon="4.24485">
        <ele>563</ele>
        <time>2018-09-26T21:04:23Z</time>
      </trkpt>
      <trkpt lat="45.46202" lon="4.24508">
        <ele>562</ele>
        <time>2018-09-26T21:05:23Z</time>
      </trkpt>
      <trkpt lat="45.46228" lon="4.24515">
        <ele>559</ele>
        <time>2018-09-26T21:06:23Z</time>
      </trkpt>
      <trkpt lat="45.46218" lon="4.24527">
        <ele>560</ele>
        <time>2018-09-26T21:07:23Z</time>
      </trkpt>
      <trkpt lat="45.46211" lon="4.24543">
        <ele>560</ele>
        <time>2018-09-26T21:08:23Z</time>
      </trkpt>
      <trkpt lat="45.46199" lon="4.2456">
        <ele>561</ele>
        <time>2018-09-26T21:09:23Z</time>
      </trkpt>
      <trkpt lat="45.46176" lon="4.24575">
        <ele>564</ele>
        <time>2018-09-26T21:10:23Z</time>
      </trkpt>
      <trkpt lat="45.46155" lon="4.24587">
        <ele>565</ele>
        <time>2018-09-26T21:11:23Z</time>
      </trkpt>
      <trkpt lat="45.46139" lon="4.24592">
        <ele>565</ele>
        <time>2018-09-26T21:12:23Z</time>
      </trkpt>
      <trkpt lat="45.46118" lon="4.24593">
        <ele>565</ele>
        <time>2018-09-26T21:13:23Z</time>
      </trkpt>
      <trkpt lat="45.46099" lon="4.24597">
        <ele>564</ele>
        <time>2018-09-26T21:14:23Z</time>
      </trkpt>
      <trkpt lat="45.46077" lon="4.2461">
        <ele>563</ele>
        <time>2018-09-26T21:15:23Z</time>
      </trkpt>
      <trkpt lat="45.46046" lon="4.24617">
        <ele>562</ele>
        <time>2018-09-26T21:16:23Z</time>
      </trkpt>
      <trkpt lat="45.4602" lon="4.24626">
        <ele>560</ele>
        <time>2018-09-26T21:17:23Z</time>
      </trkpt>
      <trkpt lat="45.45997" lon="4.24622">
        <ele>559</ele>
        <time>2018-09-26T21:18:23Z</time>
      </trkpt>
      <trkpt lat="45.45984" lon="4.24603">
        <ele>559</ele>
        <time>2018-09-26T21:19:23Z</time>
      </trkpt>
      <trkpt lat="45.45943" lon="4.24564">
        <ele>559</ele>
        <time>2018-09-26T21:20:23Z</time>
      </trkpt>
      <trkpt lat="45.45925" lon="4.24543">
        <ele>561</ele>
        <time>2018-09-26T21:21:23Z</time>
      </trkpt>
      <trkpt lat="45.45902" lon="4.24507">
        <ele>564</ele>
        <time>2018-09-26T21:22:23Z</time>
      </trkpt>
      <trkpt lat="45.45888" lon="4.24489">
        <ele>564</ele>
        <time>2018-09-26T21:23:23Z</time>
      </trkpt>
      <trkpt lat="45.45876" lon="4.24474">
        <ele>563</ele>
        <time>2018-09-26T21:24:23Z</time>
      </trkpt>
      <trkpt lat="45.45857" lon="4.24436">
        <ele>566</ele>
        <time>2018-09-26T21:25:23Z</time>
      </trkpt>
      <trkpt lat="45.45835" lon="4.24395">
        <ele>567</ele>
        <time>2018-09-26T21:26:23Z</time>
      </trkpt>
      <trkpt lat="45.45829" lon="4.24351">
        <ele>571</ele>
        <time>2018-09-26T21:27:23Z</time>
      </trkpt>
      <trkpt lat="45.4582" lon="4.24298">
        <ele>573</ele>
        <time>2018-09-26T21:28:23Z</time>
      </trkpt>
      <trkpt lat="45.45805" lon="4.24262">
        <ele>572</ele>
        <time>2018-09-26T21:29:23Z</time>
      </trkpt>
      <trkpt lat="45.45763" lon="4.24173">
        <ele>571</ele>
        <time>2018-09-26T21:30:23Z</time>
      </trkpt>
      <trkpt lat="45.45753" lon="4.24156">
        <ele>570</ele>
        <time>2018-09-26T21:31:23Z</time>
      </trkpt>
      <trkpt lat="45.45735" lon="4.24138">
        <ele>569</ele>
        <time>2018-09-26T21:32:23Z</time>
      </trkpt>
      <trkpt lat="45.45721" lon="4.24116">
        <ele>568</ele>
        <time>2018-09-26T21:33:23Z</time>
      </trkpt>
      <trkpt lat="45.45712" lon="4.24092">
        <ele>569</ele>
        <time>2018-09-26T21:34:23Z</time>
      </trkpt>
      <trkpt lat="45.45703" lon="4.23984">
        <ele>570</ele>
        <time>2018-09-26T21:35:23Z</time>
      </trkpt>
      <trkpt lat="45.45689" lon="4.23952">
        <ele>569</ele>
        <time>2018-09-26T21:36:23Z</time>
      </trkpt>
      <trkpt lat="45.45674" lon="4.23934">
        <ele>568</ele>
        <time>2018-09-26T21:37:23Z</time>
      </trkpt>
      <trkpt lat="45.45595" lon="4.23819">
        <ele>571</ele>
        <time>2018-09-26T21:38:23Z</time>
      </trkpt>
      <trkpt lat="45.45578" lon="4.23792">
        <ele>570</ele>
        <time>2018-09-26T21:39:23Z</time>
      </trkpt>
      <trkpt lat="45.45568" lon="4.23782">
        <ele>571</ele>
        <time>2018-09-26T21:40:23Z</time>
      </trkpt>
      <trkpt lat="45.45418" lon="4.2366">
        <ele>588</ele>
        <time>2018-09-26T21:41:23Z</time>
      </trkpt>
      <trkpt lat="45.45407" lon="4.2368">
        <ele>589</ele>
        <time>2018-09-26T21:42:23Z</time>
      </trkpt>
      <trkpt lat="45.45394" lon="4.23689">
        <ele>591</ele>
        <time>2018-09-26T21:43:23Z</time>
      </trkpt>
      <trkpt lat="45.45368" lon="4.237">
        <ele>593</ele>
        <time>2018-09-26T21:44:23Z</time>
      </trkpt>
      <trkpt lat="45.45353" lon="4.23704">
        <ele>595</ele>
        <time>2018-09-26T21:45:23Z</time>
      </trkpt>
      <trkpt lat="45.4533" lon="4.23704">
        <ele>597</ele>
        <time>2018-09-26T21:46:23Z</time>
      </trkpt>
      <trkpt lat="45.45282" lon="4.23699">
        <ele>600</ele>
        <time>2018-09-26T21:47:23Z</time>
      </trkpt>
      <trkpt lat="45.45239" lon="4.23695">
        <ele>601</ele>
        <time>2018-09-26T21:48:23Z</time>
      </trkpt>
      <trkpt lat="45.4523" lon="4.23695">
        <ele>601</ele>
        <time>2018-09-26T21:49:23Z</time>
      </trkpt>
      <trkpt lat="45.45197" lon="4.237">
        <ele>600</ele>
        <time>2018-09-26T21:50:23Z</time>
      </trkpt>
      <trkpt lat="45.45168" lon="4.23699">
        <ele>599</ele>
        <time>2018-09-26T21:51:23Z</time>
      </trkpt>
      <trkpt lat="45.45146" lon="4.23694">
        <ele>597</ele>
        <time>2018-09-26T21:52:23Z</time>
      </trkpt>
      <trkpt lat="45.45142" lon="4.23656">
        <ele>597</ele>
        <time>2018-09-26T21:53:23Z</time>
      </trkpt>
      <trkpt lat="45.45124" lon="4.23663">
        <ele>596</ele>
        <time>2018-09-26T21:54:23Z</time>
      </trkpt>
      <trkpt lat="45.45105" lon="4.23662">
        <ele>595</ele>
        <time>2018-09-26T21:55:23Z</time>
      </trkpt>
      <trkpt lat="45.45093" lon="4.23673">
        <ele>594</ele>
        <time>2018-09-26T21:56:23Z</time>
      </trkpt>
      <trkpt lat="45.45084" lon="4.23665">
        <ele>594</ele>
        <time>2018-09-26T21:57:23Z</time>
      </trkpt>
      <trkpt lat="45.45063" lon="4.23638">
        <ele>594</ele>
        <time>2018-09-26T21:58:23Z</time>
      </trkpt>
      <trkpt lat="45.45054" lon="4.23617">
        <ele>594</ele>
        <time>2018-09-26T21:59:23Z</time>
      </trkpt>
      <trkpt lat="45.45051" lon="4.23573">
        <ele>595</ele>
        <time>2018-09-26T22:00:23Z</time>
      </trkpt>
      <trkpt lat="45.45041" lon="4.23571">
        <ele>595</ele>
        <time>2018-09-26T22:01:23Z</time>
      </trkpt>
      <trkpt lat="45.45032" lon="4.23589">
        <ele>595</ele>
        <time>2018-09-26T22:02:23Z</time>
      </trkpt>
      <trkpt lat="45.45029" lon="4.23614">
        <ele>594</ele>
        <time>2018-09-26T22:03:23Z</time>
      </trkpt>
      <trkpt lat="45.45032" lon="4.23655">
        <ele>594</ele>
        <time>2018-09-26T22:04:23Z</time>
      </trkpt>
      <trkpt lat="45.45039" lon="4.23695">
        <ele>593</ele>
        <time>2018-09-26T22:05:23Z</time>
      </trkpt>
      <trkpt lat="45.45037" lon="4.23729">
        <ele>591</ele>
        <time>2018-09-26T22:06:23Z</time>
      </trkpt>
      <trkpt lat="45.45025" lon="4.2374">
        <ele>591</ele>
        <time>2018-09-26T22:07:23Z</time>
      </trkpt>
      <trkpt lat="45.45014" lon="4.23757">
        <ele>591</ele>
        <time>2018-09-26T22:08:23Z</time>
      </trkpt>
      <trkpt lat="45.45017" lon="4.23788">
        <ele>591</ele>
        <time>2018-09-26T22:09:23Z</time>
      </trkpt>
      <trkpt lat="45.45018" lon="4.23816">
        <ele>591</ele>
        <time>2018-09-26T22:10:23Z</time>
      </trkpt>
      <trkpt lat="45.45022" lon="4.23844">
        <ele>591</ele>
        <time>2018-09-26T22:11:23Z</time>
      </trkpt>
      <trkpt lat="45.45029" lon="4.23871">
        <ele>592</ele>
        <time>2018-09-26T22:12:23Z</time>
      </trkpt>
      <trkpt lat="45.45031" lon="4.23894">
        <ele>592</ele>
        <time>2018-09-26T22:13:23Z</time>
      </trkpt>
      <trkpt lat="45.45032" lon="4.23912">
        <ele>593</ele>
        <time>2018-09-26T22:14:23Z</time>
      </trkpt>
      <trkpt lat="45.45043" lon="4.23968">
        <ele>592</ele>
        <time>2018-09-26T22:15:23Z</time>
      </trkpt>
      <trkpt lat="45.45035" lon="4.24008">
        <ele>596</ele>
        <time>2018-09-26T22:16:23Z</time>
      </trkpt>
      <trkpt lat="45.45027" lon="4.2405">
        <ele>599</ele>
        <time>2018-09-26T22:17:23Z</time>
      </trkpt>
      <trkpt lat="45.45031" lon="4.24077">
        <ele>598</ele>
        <time>2018-09-26T22:18:23Z</time>
      </trkpt>
      <trkpt lat="45.45063" lon="4.24124">
        <ele>592</ele>
        <time>2018-09-26T22:19:23Z</time>
      </trkpt>
      <trkpt lat="45.45066" lon="4.24145">
        <ele>591</ele>
        <time>2018-09-26T22:20:23Z</time>
      </trkpt>
      <trkpt lat="45.45063" lon="4.24161">
        <ele>592</ele>
        <time>2018-09-26T22:21:23Z</time>
      </trkpt>
      <trkpt lat="45.44993" lon="4.24183">
        <ele>603</ele>
        <time>2018-09-26T22:22:23Z</time>
      </trkpt>
      <trkpt lat="45.44972" lon="4.24186">
        <ele>605</ele>
        <time>2018-09-26T22:23:23Z</time>
      </trkpt>
      <trkpt lat="45.44952" lon="4.24191">
        <ele>608</ele>
        <time>2018-09-26T22:24:23Z</time>
      </trkpt>
      <trkpt lat="45.44924" lon="4.24187">
        <ele>612</ele>
        <time>2018-09-26T22:25:23Z</time>
      </trkpt>
      <trkpt lat="45.44819" lon="4.24153">
        <ele>623</ele>
        <time>2018-09-26T22:26:23Z</time>
      </trkpt>
      <trkpt lat="45.44674" lon="4.24114">
        <ele>623</ele>
        <time>2018-09-26T22:27:23Z</time>
      </trkpt>
      <trkpt lat="45.44661" lon="4.24112">
        <ele>622</ele>
        <time>2018-09-26T22:28:23Z</time>
      </trkpt>
      <trkpt lat="45.44633" lon="4.24086">
        <ele>621</ele>
        <time>2018-09-26T22:29:23Z</time>
      </trkpt>
      <trkpt lat="45.44596" lon="4.2407">
        <ele>619</ele>
        <time>2018-09-26T22:30:23Z</time>
      </trkpt>
      <trkpt lat="45.44557" lon="4.24059">
        <ele>618</ele>
        <time>2018-09-26T22:31:23Z</time>
      </trkpt>
      <trkpt lat="45.44516" lon="4.24055">
        <ele>618</ele>
        <time>2018-09-26T22:32:23Z</time>
      </trkpt>
      <trkpt lat="45.44439" lon="4.24014">
        <ele>617</ele>
        <time>2018-09-26T22:33:23Z</time>
      </trkpt>
      <trkpt lat="45.44384" lon="4.24018">
        <ele>621</ele>
        <time>2018-09-26T22:34:23Z</time>
      </trkpt>
      <trkpt lat="45.44369" lon="4.24021">
        <ele>623</ele>
        <time>2018-09-26T22:35:23Z</time>
      </trkpt>
      <trkpt lat="45.44354" lon="4.24009">
        <ele>624</ele>
        <time>2018-09-26T22:36:23Z</time>
      </trkpt>
      <trkpt lat="45.44342" lon="4.24001">
        <ele>624</ele>
        <time>2018-09-26T22:37:23Z</time>
      </trkpt>
      <trkpt lat="45.44332" lon="4.24003">
        <ele>625</ele>
        <time>2018-09-26T22:38:23Z</time>
      </trkpt>
      <trkpt lat="45.44358" lon="4.24023">
        <ele>624</ele>
        <time>2018-09-26T22:39:23Z</time>
      </trkpt>
      <trkpt lat="45.44366" lon="4.24037">
        <ele>624</ele>
        <time>2018-09-26T22:40:23Z</time>
      </trkpt>
      <trkpt lat="45.44366" lon="4.24073">
        <ele>627</ele>
        <time>2018-09-26T22:41:23Z</time>
      </trkpt>
      <trkpt lat="45.44367" lon="4.24112">
        <ele>626</ele>
        <time>2018-09-26T22:42:23Z</time>
      </trkpt>
      <trkpt lat="45.44363" lon="4.24137">
        <ele>626</ele>
        <time>2018-09-26T22:43:23Z</time>
      </trkpt>
      <trkpt lat="45.44351" lon="4.2414">
        <ele>626</ele>
        <time>2018-09-26T22:44:23Z</time>
      </trkpt>
      <trkpt lat="45.44315" lon="4.24143">
        <ele>627</ele>
        <time>2018-09-26T22:45:23Z</time>
      </trkpt>
      <trkpt lat="45.44253" lon="4.24141">
        <ele>627</ele>
        <time>2018-09-26T22:46:23Z</time>
      </trkpt>
      <trkpt lat="45.44216" lon="4.24154">
        <ele>627</ele>
        <time>2018-09-26T22:47:23Z</time>
      </trkpt>
      <trkpt lat="45.44153" lon="4.24169">
        <ele>625</ele>
        <time>2018-09-26T22:48:23Z</time>
      </trkpt>
      <trkpt lat="45.44136" lon="4.24166">
        <ele>622</ele>
        <time>2018-09-26T22:49:23Z</time>
      </trkpt>
      <trkpt lat="45.44129" lon="4.24156">
        <ele>621</ele>
        <time>2018-09-26T22:50:23Z</time>
      </trkpt>
      <trkpt lat="45.44155" lon="4.24143">
        <ele>628</ele>
        <time>2018-09-26T22:51:23Z</time>
      </trkpt>
      <trkpt lat="45.44162" lon="4.24132">
        <ele>631</ele>
        <time>2018-09-26T22:52:23Z</time>
      </trkpt>
      <trkpt lat="45.44164" lon="4.24122">
        <ele>632</ele>
        <time>2018-09-26T22:53:23Z</time>
      </trkpt>
      <trkpt lat="45.44153" lon="4.24125">
        <ele>630</ele>
        <time>2018-09-26T22:54:23Z</time>
      </trkpt>
      <trkpt lat="45.44144" lon="4.2413">
        <ele>627</ele>
        <time>2018-09-26T22:55:23Z</time>
      </trkpt>
      <trkpt lat="45.44133" lon="4.24126">
        <ele>626</ele>
        <time>2018-09-26T22:56:23Z</time>
      </trkpt>
      <trkpt lat="45.44128" lon="4.24116">
        <ele>626</ele>
        <time>2018-09-26T22:57:23Z</time>
      </trkpt>
      <trkpt lat="45.44126" lon="4.24098">
        <ele>627</ele>
        <time>2018-09-26T22:58:23Z</time>
      </trkpt>
      <trkpt lat="45.44126" lon="4.24085">
        <ele>629</ele>
        <time>2018-09-26T22:59:23Z</time>
      </trkpt>
      <trkpt lat="45.44126" lon="4.24066">
        <ele>630</ele>
        <time>2018-09-26T23:00:23Z</time>
      </trkpt>
      <trkpt lat="45.44135" lon="4.24056">
        <ele>632</ele>
        <time>2018-09-26T23:01:23Z</time>
      </trkpt>
      <trkpt lat="45.44149" lon="4.24041">
        <ele>634</ele>
        <time>2018-09-26T23:02:23Z</time>
      </trkpt>
      <trkpt lat="45.44156" lon="4.24019">
        <ele>635</ele>
        <time>2018-09-26T23:03:23Z</time>
      </trkpt>
      <trkpt lat="45.44158" lon="4.23989">
        <ele>635</ele>
        <time>2018-09-26T23:04:23Z</time>
      </trkpt>
      <trkpt lat="45.44158" lon="4.23978">
        <ele>635</ele>
        <time>2018-09-26T23:05:23Z</time>
      </trkpt>
      <trkpt lat="45.44158" lon="4.23968">
        <ele>634</ele>
        <time>2018-09-26T23:06:23Z</time>
      </trkpt>
      <trkpt lat="45.44153" lon="4.23963">
        <ele>634</ele>
        <time>2018-09-26T23:07:23Z</time>
      </trkpt>
      <trkpt lat="45.44163" lon="4.23833">
        <ele>630</ele>
        <time>2018-09-26T23:08:23Z</time>
      </trkpt>
      <trkpt lat="45.44167" lon="4.23806">
        <ele>631</ele>
        <time>2018-09-26T23:09:23Z</time>
      </trkpt>
      <trkpt lat="45.44175" lon="4.2378">
        <ele>632</ele>
        <time>2018-09-26T23:10:23Z</time>
      </trkpt>
      <trkpt lat="45.44187" lon="4.23764">
        <ele>633</ele>
        <time>2018-09-26T23:11:23Z</time>
      </trkpt>
      <trkpt lat="45.44221" lon="4.23747">
        <ele>634</ele>
        <time>2018-09-26T23:12:23Z</time>
      </trkpt>
      <trkpt lat="45.4422" lon="4.23737">
        <ele>635</ele>
        <time>2018-09-26T23:13:23Z</time>
      </trkpt>
      <trkpt lat="45.44229" lon="4.23699">
        <ele>638</ele>
        <time>2018-09-26T23:14:23Z</time>
      </trkpt>
      <trkpt lat="45.4424" lon="4.23643">
        <ele>643</ele>
        <time>2018-09-26T23:15:23Z</time>
      </trkpt>
      <trkpt lat="45.44244" lon="4.23605">
        <ele>646</ele>
        <time>2018-09-26T23:16:23Z</time>
      </trkpt>
      <trkpt lat="45.44252" lon="4.23552">
        <ele>650</ele>
        <time>2018-09-26T23:17:23Z</time>
      </trkpt>
      <trkpt lat="45.44262" lon="4.23503">
        <ele>654</ele>
        <time>2018-09-26T23:18:23Z</time>
      </trkpt>
      <trkpt lat="45.44273" lon="4.23459">
        <ele>655</ele>
        <time>2018-09-26T23:19:23Z</time>
      </trkpt>
      <trkpt lat="45.44287" lon="4.23416">
        <ele>656</ele>
        <time>2018-09-26T23:20:23Z</time>
      </trkpt>
      <trkpt lat="45.44291" lon="4.23386">
        <ele>657</ele>
        <time>2018-09-26T23:21:23Z</time>
      </trkpt>
      <trkpt lat="45.44291" lon="4.23373">
        <ele>657</ele>
        <time>2018-09-26T23:22:23Z</time>
      </trkpt>
      <trkpt lat="45.44286" lon="4.23351">
        <ele>659</ele>
        <time>2018-09-26T23:23:23Z</time>
      </trkpt>
      <trkpt lat="45.44281" lon="4.23335">
        <ele>660</ele>
        <time>2018-09-26T23:24:23Z</time>
      </trkpt>
      <trkpt lat="45.44273" lon="4.23315">
        <ele>661</ele>
        <time>2018-09-26T23:25:23Z</time>
      </trkpt>
      <trkpt lat="45.44271" lon="4.23305">
        <ele>661</ele>
        <time>2018-09-26T23:26:23Z</time>
      </trkpt>
      <trkpt lat="45.44259" lon="4.23288">
        <ele>663</ele>
        <time>2018-09-26T23:27:23Z</time>
      </trkpt>
      <trkpt lat="45.44226" lon="4.23284">
        <ele>667</ele>
        <time>2018-09-26T23:28:23Z</time>
      </trkpt>
      <trkpt lat="45.44197" lon="4.23272">
        <ele>671</ele>
        <time>2018-09-26T23:29:23Z</time>
      </trkpt>
      <trkpt lat="45.44168" lon="4.23259">
        <ele>676</ele>
        <time>2018-09-26T23:30:23Z</time>
      </trkpt>
      <trkpt lat="45.44136" lon="4.23242">
        <ele>678</ele>
        <time>2018-09-26T23:31:23Z</time>
      </trkpt>
      <trkpt lat="45.4411" lon="4.23228">
        <ele>681</ele>
        <time>2018-09-26T23:32:23Z</time>
      </trkpt>
      <trkpt lat="45.44088" lon="4.23223">
        <ele>683</ele>
        <time>2018-09-26T23:33:23Z</time>
      </trkpt>
      <trkpt lat="45.44062" lon="4.23221">
        <ele>686</ele>
        <time>2018-09-26T23:34:23Z</time>
      </trkpt>
      <trkpt lat="45.44035" lon="4.23225">
        <ele>688</ele>
        <time>2018-09-26T23:35:23Z</time>
      </trkpt>
      <trkpt lat="45.44004" lon="4.23226">
        <ele>691</ele>
        <time>2018-09-26T23:36:23Z</time>
      </trkpt>
      <trkpt lat="45.43978" lon="4.23228">
        <ele>693</ele>
        <time>2018-09-26T23:37:23Z</time>
      </trkpt>
      <trkpt lat="45.43962" lon="4.23227">
        <ele>693</ele>
        <time>2018-09-26T23:38:23Z</time>
      </trkpt>
      <trkpt lat="45.43945" lon="4.2322">
        <ele>694</ele>
        <time>2018-09-26T23:39:23Z</time>
      </trkpt>
      <trkpt lat="45.43914" lon="4.23196">
        <ele>696</ele>
        <time>2018-09-26T23:40:23Z</time>
      </trkpt>
      <trkpt lat="45.43869" lon="4.23153">
        <ele>700</ele>
        <time>2018-09-26T23:41:23Z</time>
      </trkpt>
      <trkpt lat="45.4386" lon="4.23142">
        <ele>701</ele>
        <time>2018-09-26T23:42:23Z</time>
      </trkpt>
      <trkpt lat="45.43817" lon="4.23119">
        <ele>702</ele>
        <time>2018-09-26T23:43:23Z</time>
      </trkpt>
      <trkpt lat="45.43784" lon="4.23097">
        <ele>701</ele>
        <time>2018-09-26T23:44:23Z</time>
      </trkpt>
      <trkpt lat="45.43755" lon="4.23072">
        <ele>701</ele>
        <time>2018-09-26T23:45:23Z</time>
      </trkpt>
      <trkpt lat="45.43696" lon="4.23022">
        <ele>702</ele>
        <time>2018-09-26T23:46:23Z</time>
      </trkpt>
      <trkpt lat="45.43635" lon="4.22966">
        <ele>704</ele>
        <time>2018-09-26T23:47:23Z</time>
      </trkpt>
      <trkpt lat="45.43616" lon="4.22948">
        <ele>705</ele>
        <time>2018-09-26T23:48:23Z</time>
      </trkpt>
      <trkpt lat="45.43608" lon="4.22933">
        <ele>705</ele>
        <time>2018-09-26T23:49:23Z</time>
      </trkpt>
      <trkpt lat="45.43599" lon="4.22915">
        <ele>705</ele>
        <time>2018-09-26T23:50:23Z</time>
      </trkpt>
      <trkpt lat="45.43588" lon="4.22894">
        <ele>704</ele>
        <time>2018-09-26T23:51:23Z</time>
      </trkpt>
      <trkpt lat="45.43569" lon="4.22864">
        <ele>703</ele>
        <time>2018-09-26T23:52:23Z</time>
      </trkpt>
      <trkpt lat="45.43557" lon="4.22848">
        <ele>702</ele>
        <time>2018-09-26T23:53:23Z</time>
      </trkpt>
      <trkpt lat="45.43547" lon="4.22841">
        <ele>703</ele>
        <time>2018-09-26T23:54:23Z</time>
      </trkpt>
      <trkpt lat="45.43529" lon="4.22828">
        <ele>703</ele>
        <time>2018-09-26T23:55:23Z</time>
      </trkpt>
      <trkpt lat="45.43506" lon="4.22813">
        <ele>703</ele>
        <time>2018-09-26T23:56:23Z</time>
      </trkpt>
      <trkpt lat="45.43473" lon="4.228">
        <ele>704</ele>
        <time>2018-09-26T23:57:23Z</time>
      </trkpt>
      <trkpt lat="45.43434" lon="4.22782">
        <ele>705</ele>
        <time>2018-09-26T23:58:23Z</time>
      </trkpt>
      <trkpt lat="45.43406" lon="4.2276">
        <ele>707</ele>
        <time>2018-09-26T23:59:23Z</time>
      </trkpt>
      <trkpt lat="45.43335" lon="4.22682">
        <ele>715</ele>
        <time>2018-09-27T00:00:23Z</time>
      </trkpt>
      <trkpt lat="45.43317" lon="4.22659">
        <ele>718</ele>
        <time>2018-09-27T00:01:23Z</time>
      </trkpt>
      <trkpt lat="45.43296" lon="4.22626">
        <ele>723</ele>
        <time>2018-09-27T00:02:23Z</time>
      </trkpt>
      <trkpt lat="45.43275" lon="4.22587">
        <ele>727</ele>
        <time>2018-09-27T00:03:23Z</time>
      </trkpt>
      <trkpt lat="45.43267" lon="4.22574">
        <ele>728</ele>
        <time>2018-09-27T00:04:23Z</time>
      </trkpt>
      <trkpt lat="45.43244" lon="4.22535">
        <ele>729</ele>
        <time>2018-09-27T00:05:23Z</time>
      </trkpt>
      <trkpt lat="45.43216" lon="4.22489">
        <ele>731</ele>
        <time>2018-09-27T00:06:23Z</time>
      </trkpt>
      <trkpt lat="45.43182" lon="4.22538">
        <ele>733</ele>
        <time>2018-09-27T00:07:23Z</time>
      </trkpt>
      <trkpt lat="45.43192" lon="4.22537">
        <ele>732</ele>
        <time>2018-09-27T00:08:23Z</time>
      </trkpt>
    </trkseg>
  </trk>
</gpx>